sensor_id;sensor_type;location;lat;lon;timestamp;P1;durP1;ratioP1;P2;durP2;ratioP2
2896;SDS011;1458;49.728;9.228;2023-12-07T00:02:01;0.60;;;0.60;;
2896;SDS011;1458;49.728;9.228;2023-12-07T00:04:29;0.73;;;0.73;;
2896;SDS011;1458;49.728;9.228;2023-12-07T00:06:56;0.60;;;0.60;;
2896;SDS011;1458;49.728;9.228;2023-12-07T00:09:24;0.57;;;0.57;;
2896;SDS011;1458;49.728;9.228;2023-12-07T00:11:52;0.50;;;0.50;;
2896;SDS011;1458;49.728;9.228;2023-12-07T00:14:20;0.50;;;0.50;;
2896;SDS011;1458;49.728;9.228;2023-12-07T00:16:47;0.60;;;0.60;;
2896;SDS011;1458;49.728;9.228;2023-12-07T00:19:15;0.80;;;0.80;;
2896;SDS011;1458;49.728;9.228;2023-12-07T00:21:41;0.60;;;0.60;;
2896;SDS011;1458;49.728;9.228;2023-12-07T00:24:09;0.60;;;0.60;;
2896;SDS011;1458;49.728;9.228;2023-12-07T00:26:36;0.60;;;0.60;;
2896;SDS011;1458;49.728;9.228;2023-12-07T00:29:06;0.50;;;0.50;;
2896;SDS011;1458;49.728;9.228;2023-12-07T00:31:33;0.60;;;0.60;;
2896;SDS011;1458;49.728;9.228;2023-12-07T00:34:00;0.60;;;0.60;;
2896;SDS011;1458;49.728;9.228;2023-12-07T00:36:28;0.70;;;0.70;;
2896;SDS011;1458;49.728;9.228;2023-12-07T00:38:55;0.60;;;0.60;;
2896;SDS011;1458;49.728;9.228;2023-12-07T00:41:23;0.50;;;0.50;;
2896;SDS011;1458;49.728;9.228;2023-12-07T00:43:50;0.60;;;0.60;;
2896;SDS011;1458;49.728;9.228;2023-12-07T00:46:19;0.60;;;0.60;;
2896;SDS011;1458;49.728;9.228;2023-12-07T00:48:46;0.60;;;0.60;;
2896;SDS011;1458;49.728;9.228;2023-12-07T00:51:13;0.60;;;0.60;;
2896;SDS011;1458;49.728;9.228;2023-12-07T00:53:41;0.60;;;0.60;;
2896;SDS011;1458;49.728;9.228;2023-12-07T00:56:08;0.60;;;0.60;;
2896;SDS011;1458;49.728;9.228;2023-12-07T00:58:36;0.60;;;0.60;;
2896;SDS011;1458;49.728;9.228;2023-12-07T01:01:04;0.73;;;0.73;;
2896;SDS011;1458;49.728;9.228;2023-12-07T01:03:33;0.60;;;0.60;;
2896;SDS011;1458;49.728;9.228;2023-12-07T01:06:00;0.60;;;0.60;;
2896;SDS011;1458;49.728;9.228;2023-12-07T01:08:28;0.50;;;0.50;;
2896;SDS011;1458;49.728;9.228;2023-12-07T01:10:55;0.60;;;0.60;;
2896;SDS011;1458;49.728;9.228;2023-12-07T01:13:23;0.60;;;0.60;;
2896;SDS011;1458;49.728;9.228;2023-12-07T01:15:50;0.60;;;0.60;;
2896;SDS011;1458;49.728;9.228;2023-12-07T01:18:17;0.60;;;0.60;;
2896;SDS011;1458;49.728;9.228;2023-12-07T01:20:46;0.60;;;0.60;;
2896;SDS011;1458;49.728;9.228;2023-12-07T01:23:14;0.60;;;0.60;;
2896;SDS011;1458;49.728;9.228;2023-12-07T01:25:42;0.60;;;0.60;;
2896;SDS011;1458;49.728;9.228;2023-12-07T01:28:09;0.60;;;0.60;;
2896;SDS011;1458;49.728;9.228;2023-12-07T01:30:37;0.50;;;0.50;;
2896;SDS011;1458;49.728;9.228;2023-12-07T01:33:04;0.60;;;0.60;;
2896;SDS011;1458;49.728;9.228;2023-12-07T01:35:31;0.60;;;0.60;;
2896;SDS011;1458;49.728;9.228;2023-12-07T01:38:00;0.60;;;0.60;;
2896;SDS011;1458;49.728;9.228;2023-12-07T01:40:27;0.60;;;0.60;;
2896;SDS011;1458;49.728;9.228;2023-12-07T01:42:55;0.60;;;0.60;;
2896;SDS011;1458;49.728;9.228;2023-12-07T01:45:22;0.63;;;0.63;;
2896;SDS011;1458;49.728;9.228;2023-12-07T01:47:50;0.50;;;0.50;;
2896;SDS011;1458;49.728;9.228;2023-12-07T01:50:19;0.73;;;0.73;;
2896;SDS011;1458;49.728;9.228;2023-12-07T01:52:49;0.50;;;0.50;;
2896;SDS011;1458;49.728;9.228;2023-12-07T01:55:25;0.60;;;0.60;;
2896;SDS011;1458;49.728;9.228;2023-12-07T01:57:54;0.60;;;0.60;;
2896;SDS011;1458;49.728;9.228;2023-12-07T02:00:21;0.60;;;0.60;;
2896;SDS011;1458;49.728;9.228;2023-12-07T02:02:49;0.60;;;0.60;;
2896;SDS011;1458;49.728;9.228;2023-12-07T02:05:18;0.73;;;0.73;;
2896;SDS011;1458;49.728;9.228;2023-12-07T02:07:45;0.60;;;0.60;;
2896;SDS011;1458;49.728;9.228;2023-12-07T02:10:13;0.50;;;0.50;;
2896;SDS011;1458;49.728;9.228;2023-12-07T02:12:42;0.50;;;0.50;;
2896;SDS011;1458;49.728;9.228;2023-12-07T02:15:11;0.60;;;0.60;;
2896;SDS011;1458;49.728;9.228;2023-12-07T02:17:41;0.60;;;0.60;;
2896;SDS011;1458;49.728;9.228;2023-12-07T02:20:20;0.60;;;0.60;;
2896;SDS011;1458;49.728;9.228;2023-12-07T02:22:54;0.60;;;0.60;;
2896;SDS011;1458;49.728;9.228;2023-12-07T02:25:24;0.60;;;0.60;;
2896;SDS011;1458;49.728;9.228;2023-12-07T02:27:59;0.60;;;0.60;;
2896;SDS011;1458;49.728;9.228;2023-12-07T02:30:26;0.60;;;0.60;;
2896;SDS011;1458;49.728;9.228;2023-12-07T02:32:54;0.60;;;0.60;;
2896;SDS011;1458;49.728;9.228;2023-12-07T02:35:22;0.70;;;0.70;;
2896;SDS011;1458;49.728;9.228;2023-12-07T02:37:51;0.70;;;0.70;;
2896;SDS011;1458;49.728;9.228;2023-12-07T02:40:20;0.70;;;0.70;;
2896;SDS011;1458;49.728;9.228;2023-12-07T02:42:50;0.60;;;0.60;;
2896;SDS011;1458;49.728;9.228;2023-12-07T02:45:19;0.70;;;0.70;;
2896;SDS011;1458;49.728;9.228;2023-12-07T02:47:47;0.60;;;0.60;;
2896;SDS011;1458;49.728;9.228;2023-12-07T02:50:15;0.60;;;0.60;;
2896;SDS011;1458;49.728;9.228;2023-12-07T02:52:42;0.60;;;0.60;;
2896;SDS011;1458;49.728;9.228;2023-12-07T02:55:10;0.60;;;0.60;;
2896;SDS011;1458;49.728;9.228;2023-12-07T02:57:37;0.50;;;0.50;;
2896;SDS011;1458;49.728;9.228;2023-12-07T03:00:05;0.60;;;0.60;;
2896;SDS011;1458;49.728;9.228;2023-12-07T03:02:38;0.60;;;0.60;;
2896;SDS011;1458;49.728;9.228;2023-12-07T03:05:06;0.80;;;0.80;;
2896;SDS011;1458;49.728;9.228;2023-12-07T03:07:34;0.70;;;0.70;;
2896;SDS011;1458;49.728;9.228;2023-12-07T03:10:02;0.60;;;0.60;;
2896;SDS011;1458;49.728;9.228;2023-12-07T03:12:30;0.60;;;0.60;;
2896;SDS011;1458;49.728;9.228;2023-12-07T03:14:57;0.60;;;0.60;;
2896;SDS011;1458;49.728;9.228;2023-12-07T03:17:25;0.63;;;0.63;;
2896;SDS011;1458;49.728;9.228;2023-12-07T03:19:54;0.60;;;0.60;;
2896;SDS011;1458;49.728;9.228;2023-12-07T03:22:21;0.60;;;0.60;;
2896;SDS011;1458;49.728;9.228;2023-12-07T03:24:50;0.60;;;0.60;;
2896;SDS011;1458;49.728;9.228;2023-12-07T03:27:18;0.60;;;0.60;;
2896;SDS011;1458;49.728;9.228;2023-12-07T03:29:46;0.70;;;0.70;;
2896;SDS011;1458;49.728;9.228;2023-12-07T03:32:13;0.60;;;0.60;;
2896;SDS011;1458;49.728;9.228;2023-12-07T03:34:40;0.60;;;0.60;;
2896;SDS011;1458;49.728;9.228;2023-12-07T03:37:09;0.60;;;0.60;;
2896;SDS011;1458;49.728;9.228;2023-12-07T03:39:37;0.60;;;0.60;;
2896;SDS011;1458;49.728;9.228;2023-12-07T03:42:04;0.87;;;0.87;;
2896;SDS011;1458;49.728;9.228;2023-12-07T03:44:32;0.70;;;0.70;;
2896;SDS011;1458;49.728;9.228;2023-12-07T03:47:00;0.60;;;0.60;;
2896;SDS011;1458;49.728;9.228;2023-12-07T03:49:27;0.60;;;0.60;;
2896;SDS011;1458;49.728;9.228;2023-12-07T03:51:55;0.50;;;0.50;;
2896;SDS011;1458;49.728;9.228;2023-12-07T03:54:23;0.60;;;0.60;;
2896;SDS011;1458;49.728;9.228;2023-12-07T03:56:51;0.67;;;0.67;;
2896;SDS011;1458;49.728;9.228;2023-12-07T03:59:18;0.60;;;0.60;;
2896;SDS011;1458;49.728;9.228;2023-12-07T04:01:45;0.50;;;0.50;;
2896;SDS011;1458;49.728;9.228;2023-12-07T04:04:13;0.60;;;0.60;;
2896;SDS011;1458;49.728;9.228;2023-12-07T04:06:40;0.60;;;0.60;;
2896;SDS011;1458;49.728;9.228;2023-12-07T04:09:08;0.60;;;0.60;;
2896;SDS011;1458;49.728;9.228;2023-12-07T04:11:36;0.60;;;0.60;;
2896;SDS011;1458;49.728;9.228;2023-12-07T04:14:04;0.60;;;0.60;;
2896;SDS011;1458;49.728;9.228;2023-12-07T04:16:31;0.60;;;0.60;;
2896;SDS011;1458;49.728;9.228;2023-12-07T04:18:58;0.60;;;0.60;;
2896;SDS011;1458;49.728;9.228;2023-12-07T04:21:26;0.70;;;0.70;;
2896;SDS011;1458;49.728;9.228;2023-12-07T04:23:53;0.60;;;0.60;;
2896;SDS011;1458;49.728;9.228;2023-12-07T04:26:20;0.60;;;0.60;;
2896;SDS011;1458;49.728;9.228;2023-12-07T04:28:49;0.63;;;0.63;;
2896;SDS011;1458;49.728;9.228;2023-12-07T04:31:17;0.70;;;0.70;;
2896;SDS011;1458;49.728;9.228;2023-12-07T04:33:44;0.60;;;0.60;;
2896;SDS011;1458;49.728;9.228;2023-12-07T04:36:11;0.60;;;0.60;;
2896;SDS011;1458;49.728;9.228;2023-12-07T04:38:39;0.60;;;0.60;;
2896;SDS011;1458;49.728;9.228;2023-12-07T04:41:06;0.60;;;0.60;;
2896;SDS011;1458;49.728;9.228;2023-12-07T04:43:34;0.73;;;0.73;;
2896;SDS011;1458;49.728;9.228;2023-12-07T04:46:03;0.60;;;0.60;;
2896;SDS011;1458;49.728;9.228;2023-12-07T04:48:30;0.60;;;0.60;;
2896;SDS011;1458;49.728;9.228;2023-12-07T04:50:58;0.60;;;0.60;;
2896;SDS011;1458;49.728;9.228;2023-12-07T04:53:25;0.60;;;0.60;;
2896;SDS011;1458;49.728;9.228;2023-12-07T04:55:52;0.60;;;0.60;;
2896;SDS011;1458;49.728;9.228;2023-12-07T04:58:20;0.70;;;0.70;;
2896;SDS011;1458;49.728;9.228;2023-12-07T05:00:47;0.60;;;0.60;;
2896;SDS011;1458;49.728;9.228;2023-12-07T05:03:16;0.70;;;0.70;;
2896;SDS011;1458;49.728;9.228;2023-12-07T05:05:44;0.70;;;0.70;;
2896;SDS011;1458;49.728;9.228;2023-12-07T05:08:11;0.60;;;0.60;;
2896;SDS011;1458;49.728;9.228;2023-12-07T05:10:38;0.70;;;0.70;;
2896;SDS011;1458;49.728;9.228;2023-12-07T05:13:06;0.60;;;0.60;;
2896;SDS011;1458;49.728;9.228;2023-12-07T05:15:33;0.60;;;0.60;;
2896;SDS011;1458;49.728;9.228;2023-12-07T05:18:01;0.60;;;0.60;;
2896;SDS011;1458;49.728;9.228;2023-12-07T05:20:30;0.70;;;0.70;;
2896;SDS011;1458;49.728;9.228;2023-12-07T05:22:57;0.60;;;0.60;;
2896;SDS011;1458;49.728;9.228;2023-12-07T05:25:24;0.70;;;0.70;;
2896;SDS011;1458;49.728;9.228;2023-12-07T05:27:52;0.70;;;0.70;;
2896;SDS011;1458;49.728;9.228;2023-12-07T05:30:19;0.60;;;0.60;;
2896;SDS011;1458;49.728;9.228;2023-12-07T05:32:47;0.67;;;0.67;;
2896;SDS011;1458;49.728;9.228;2023-12-07T05:35:14;0.60;;;0.60;;
2896;SDS011;1458;49.728;9.228;2023-12-07T05:37:43;0.60;;;0.60;;
2896;SDS011;1458;49.728;9.228;2023-12-07T05:40:10;0.60;;;0.60;;
2896;SDS011;1458;49.728;9.228;2023-12-07T05:42:38;0.60;;;0.60;;
2896;SDS011;1458;49.728;9.228;2023-12-07T05:45:06;0.70;;;0.70;;
2896;SDS011;1458;49.728;9.228;2023-12-07T05:47:35;0.60;;;0.60;;
2896;SDS011;1458;49.728;9.228;2023-12-07T05:50:02;0.60;;;0.60;;
2896;SDS011;1458;49.728;9.228;2023-12-07T05:52:31;0.60;;;0.60;;
2896;SDS011;1458;49.728;9.228;2023-12-07T05:55:00;0.60;;;0.60;;
2896;SDS011;1458;49.728;9.228;2023-12-07T05:57:27;0.60;;;0.60;;
2896;SDS011;1458;49.728;9.228;2023-12-07T05:59:56;0.60;;;0.60;;
2896;SDS011;1458;49.728;9.228;2023-12-07T06:02:23;0.60;;;0.60;;
2896;SDS011;1458;49.728;9.228;2023-12-07T06:04:51;0.60;;;0.60;;
2896;SDS011;1458;49.728;9.228;2023-12-07T06:07:20;0.60;;;0.60;;
2896;SDS011;1458;49.728;9.228;2023-12-07T06:09:48;0.60;;;0.60;;
2896;SDS011;1458;49.728;9.228;2023-12-07T06:12:16;0.60;;;0.60;;
2896;SDS011;1458;49.728;9.228;2023-12-07T06:14:44;0.60;;;0.60;;
2896;SDS011;1458;49.728;9.228;2023-12-07T06:17:11;0.50;;;0.50;;
2896;SDS011;1458;49.728;9.228;2023-12-07T06:19:38;0.63;;;0.63;;
2896;SDS011;1458;49.728;9.228;2023-12-07T06:22:07;0.50;;;0.50;;
2896;SDS011;1458;49.728;9.228;2023-12-07T06:24:35;0.53;;;0.53;;
2896;SDS011;1458;49.728;9.228;2023-12-07T06:27:02;0.60;;;0.60;;
2896;SDS011;1458;49.728;9.228;2023-12-07T06:29:32;0.60;;;0.60;;
2896;SDS011;1458;49.728;9.228;2023-12-07T06:31:59;0.50;;;0.50;;
2896;SDS011;1458;49.728;9.228;2023-12-07T06:34:27;0.50;;;0.50;;
2896;SDS011;1458;49.728;9.228;2023-12-07T06:36:54;0.50;;;0.50;;
2896;SDS011;1458;49.728;9.228;2023-12-07T06:39:21;0.50;;;0.50;;
2896;SDS011;1458;49.728;9.228;2023-12-07T06:41:49;0.60;;;0.60;;
2896;SDS011;1458;49.728;9.228;2023-12-07T06:44:16;0.60;;;0.60;;
2896;SDS011;1458;49.728;9.228;2023-12-07T06:46:45;0.60;;;0.60;;
2896;SDS011;1458;49.728;9.228;2023-12-07T06:49:12;0.70;;;0.70;;
2896;SDS011;1458;49.728;9.228;2023-12-07T06:51:40;0.50;;;0.50;;
2896;SDS011;1458;49.728;9.228;2023-12-07T06:54:07;0.50;;;0.50;;
2896;SDS011;1458;49.728;9.228;2023-12-07T06:56:34;0.60;;;0.60;;
2896;SDS011;1458;49.728;9.228;2023-12-07T06:59:02;0.60;;;0.60;;
2896;SDS011;1458;49.728;9.228;2023-12-07T07:01:29;0.60;;;0.60;;
2896;SDS011;1458;49.728;9.228;2023-12-07T07:03:58;0.60;;;0.60;;
2896;SDS011;1458;49.728;9.228;2023-12-07T07:06:25;0.60;;;0.60;;
2896;SDS011;1458;49.728;9.228;2023-12-07T07:08:53;0.60;;;0.60;;
2896;SDS011;1458;49.728;9.228;2023-12-07T07:11:20;0.60;;;0.60;;
2896;SDS011;1458;49.728;9.228;2023-12-07T07:13:48;0.60;;;0.60;;
2896;SDS011;1458;49.728;9.228;2023-12-07T07:16:15;0.60;;;0.60;;
2896;SDS011;1458;49.728;9.228;2023-12-07T07:18:44;0.70;;;0.70;;
2896;SDS011;1458;49.728;9.228;2023-12-07T07:21:13;0.60;;;0.60;;
2896;SDS011;1458;49.728;9.228;2023-12-07T07:23:40;0.60;;;0.60;;
2896;SDS011;1458;49.728;9.228;2023-12-07T07:26:07;0.60;;;0.60;;
2896;SDS011;1458;49.728;9.228;2023-12-07T07:28:35;0.60;;;0.60;;
2896;SDS011;1458;49.728;9.228;2023-12-07T07:31:02;0.70;;;0.70;;
2896;SDS011;1458;49.728;9.228;2023-12-07T07:33:30;0.80;;;0.80;;
2896;SDS011;1458;49.728;9.228;2023-12-07T07:35:57;0.60;;;0.60;;
2896;SDS011;1458;49.728;9.228;2023-12-07T07:38:26;0.60;;;0.60;;
2896;SDS011;1458;49.728;9.228;2023-12-07T07:40:53;0.60;;;0.60;;
2896;SDS011;1458;49.728;9.228;2023-12-07T07:43:21;0.60;;;0.60;;
2896;SDS011;1458;49.728;9.228;2023-12-07T07:45:48;0.60;;;0.60;;
2896;SDS011;1458;49.728;9.228;2023-12-07T07:48:16;0.90;;;0.90;;
2896;SDS011;1458;49.728;9.228;2023-12-07T07:50:43;0.70;;;0.70;;
2896;SDS011;1458;49.728;9.228;2023-12-07T07:53:11;0.60;;;0.60;;
2896;SDS011;1458;49.728;9.228;2023-12-07T07:55:39;0.60;;;0.60;;
2896;SDS011;1458;49.728;9.228;2023-12-07T07:58:07;0.60;;;0.60;;
2896;SDS011;1458;49.728;9.228;2023-12-07T08:00:35;0.80;;;0.80;;
2896;SDS011;1458;49.728;9.228;2023-12-07T08:03:02;0.60;;;0.60;;
2896;SDS011;1458;49.728;9.228;2023-12-07T08:05:30;0.60;;;0.60;;
2896;SDS011;1458;49.728;9.228;2023-12-07T08:07:58;0.60;;;0.60;;
2896;SDS011;1458;49.728;9.228;2023-12-07T08:10:25;0.60;;;0.60;;
2896;SDS011;1458;49.728;9.228;2023-12-07T08:12:54;0.60;;;0.60;;
2896;SDS011;1458;49.728;9.228;2023-12-07T08:15:22;0.60;;;0.60;;
2896;SDS011;1458;49.728;9.228;2023-12-07T08:17:49;0.60;;;0.60;;
2896;SDS011;1458;49.728;9.228;2023-12-07T08:20:17;0.70;;;0.70;;
2896;SDS011;1458;49.728;9.228;2023-12-07T08:22:44;0.90;;;0.90;;
2896;SDS011;1458;49.728;9.228;2023-12-07T08:25:12;0.60;;;0.60;;
2896;SDS011;1458;49.728;9.228;2023-12-07T08:27:40;0.60;;;0.60;;
2896;SDS011;1458;49.728;9.228;2023-12-07T08:30:11;0.60;;;0.60;;
2896;SDS011;1458;49.728;9.228;2023-12-07T08:32:39;0.60;;;0.60;;
2896;SDS011;1458;49.728;9.228;2023-12-07T08:35:06;0.60;;;0.60;;
2896;SDS011;1458;49.728;9.228;2023-12-07T08:37:36;0.60;;;0.60;;
2896;SDS011;1458;49.728;9.228;2023-12-07T08:40:05;0.70;;;0.70;;
2896;SDS011;1458;49.728;9.228;2023-12-07T08:42:35;0.70;;;0.70;;
2896;SDS011;1458;49.728;9.228;2023-12-07T08:45:02;0.70;;;0.70;;
2896;SDS011;1458;49.728;9.228;2023-12-07T08:50:07;0.70;;;0.70;;
2896;SDS011;1458;49.728;9.228;2023-12-07T08:52:35;0.70;;;0.70;;
2896;SDS011;1458;49.728;9.228;2023-12-07T08:55:03;0.80;;;0.80;;
2896;SDS011;1458;49.728;9.228;2023-12-07T08:57:31;0.67;;;0.67;;
2896;SDS011;1458;49.728;9.228;2023-12-07T08:59:58;0.60;;;0.60;;
2896;SDS011;1458;49.728;9.228;2023-12-07T09:02:26;0.70;;;0.70;;
2896;SDS011;1458;49.728;9.228;2023-12-07T09:04:53;0.70;;;0.70;;
2896;SDS011;1458;49.728;9.228;2023-12-07T09:07:22;0.70;;;0.70;;
2896;SDS011;1458;49.728;9.228;2023-12-07T09:09:49;0.60;;;0.60;;
2896;SDS011;1458;49.728;9.228;2023-12-07T09:12:17;0.60;;;0.60;;
2896;SDS011;1458;49.728;9.228;2023-12-07T09:14:44;0.60;;;0.60;;
2896;SDS011;1458;49.728;9.228;2023-12-07T09:17:12;0.60;;;0.60;;
2896;SDS011;1458;49.728;9.228;2023-12-07T09:19:40;0.60;;;0.60;;
2896;SDS011;1458;49.728;9.228;2023-12-07T09:22:08;0.60;;;0.60;;
2896;SDS011;1458;49.728;9.228;2023-12-07T09:27:07;0.60;;;0.60;;
2896;SDS011;1458;49.728;9.228;2023-12-07T09:29:35;0.70;;;0.70;;
2896;SDS011;1458;49.728;9.228;2023-12-07T09:32:03;0.60;;;0.60;;
2896;SDS011;1458;49.728;9.228;2023-12-07T09:34:32;0.60;;;0.60;;
2896;SDS011;1458;49.728;9.228;2023-12-07T09:37:06;0.60;;;0.60;;
2896;SDS011;1458;49.728;9.228;2023-12-07T09:39:34;0.80;;;0.80;;
2896;SDS011;1458;49.728;9.228;2023-12-07T09:42:02;0.60;;;0.60;;
2896;SDS011;1458;49.728;9.228;2023-12-07T09:44:31;0.60;;;0.60;;
2896;SDS011;1458;49.728;9.228;2023-12-07T09:46:58;0.60;;;0.60;;
2896;SDS011;1458;49.728;9.228;2023-12-07T09:49:26;0.60;;;0.60;;
2896;SDS011;1458;49.728;9.228;2023-12-07T09:51:54;0.60;;;0.60;;
2896;SDS011;1458;49.728;9.228;2023-12-07T09:54:23;0.90;;;0.90;;
2896;SDS011;1458;49.728;9.228;2023-12-07T09:56:51;0.60;;;0.60;;
2896;SDS011;1458;49.728;9.228;2023-12-07T09:59:20;0.60;;;0.60;;
2896;SDS011;1458;49.728;9.228;2023-12-07T10:01:49;0.80;;;0.80;;
2896;SDS011;1458;49.728;9.228;2023-12-07T10:04:18;0.70;;;0.70;;
2896;SDS011;1458;49.728;9.228;2023-12-07T10:06:48;0.60;;;0.60;;
2896;SDS011;1458;49.728;9.228;2023-12-07T10:09:15;0.67;;;0.67;;
2896;SDS011;1458;49.728;9.228;2023-12-07T10:11:44;0.70;;;0.70;;
2896;SDS011;1458;49.728;9.228;2023-12-07T10:14:11;0.83;;;0.83;;
2896;SDS011;1458;49.728;9.228;2023-12-07T10:16:39;0.60;;;0.60;;
2896;SDS011;1458;49.728;9.228;2023-12-07T10:19:22;0.67;;;0.67;;
2896;SDS011;1458;49.728;9.228;2023-12-07T10:21:50;0.60;;;0.60;;
2896;SDS011;1458;49.728;9.228;2023-12-07T10:24:19;0.70;;;0.70;;
2896;SDS011;1458;49.728;9.228;2023-12-07T10:26:48;0.80;;;0.80;;
2896;SDS011;1458;49.728;9.228;2023-12-07T10:29:17;0.80;;;0.80;;
2896;SDS011;1458;49.728;9.228;2023-12-07T10:31:45;0.70;;;0.70;;
2896;SDS011;1458;49.728;9.228;2023-12-07T10:34:15;0.90;;;0.90;;
2896;SDS011;1458;49.728;9.228;2023-12-07T10:36:46;0.70;;;0.70;;
2896;SDS011;1458;49.728;9.228;2023-12-07T10:39:14;0.70;;;0.70;;
2896;SDS011;1458;49.728;9.228;2023-12-07T10:41:43;0.80;;;0.80;;
2896;SDS011;1458;49.728;9.228;2023-12-07T10:44:13;0.97;;;0.97;;
2896;SDS011;1458;49.728;9.228;2023-12-07T10:46:42;0.80;;;0.80;;
2896;SDS011;1458;49.728;9.228;2023-12-07T10:49:13;0.73;;;0.73;;
2896;SDS011;1458;49.728;9.228;2023-12-07T10:51:49;0.70;;;0.70;;
2896;SDS011;1458;49.728;9.228;2023-12-07T10:54:23;0.80;;;0.80;;
2896;SDS011;1458;49.728;9.228;2023-12-07T10:57:01;0.70;;;0.70;;
2896;SDS011;1458;49.728;9.228;2023-12-07T10:59:31;0.70;;;0.70;;
2896;SDS011;1458;49.728;9.228;2023-12-07T11:02:01;0.90;;;0.90;;
2896;SDS011;1458;49.728;9.228;2023-12-07T11:04:33;0.80;;;0.80;;
2896;SDS011;1458;49.728;9.228;2023-12-07T11:07:03;0.70;;;0.70;;
2896;SDS011;1458;49.728;9.228;2023-12-07T11:09:37;0.70;;;0.70;;
2896;SDS011;1458;49.728;9.228;2023-12-07T11:12:11;0.70;;;0.70;;
2896;SDS011;1458;49.728;9.228;2023-12-07T11:14:48;0.70;;;0.70;;
2896;SDS011;1458;49.728;9.228;2023-12-07T11:17:15;0.80;;;0.80;;
2896;SDS011;1458;49.728;9.228;2023-12-07T11:19:44;0.80;;;0.80;;
2896;SDS011;1458;49.728;9.228;2023-12-07T11:22:15;0.97;;;0.97;;
2896;SDS011;1458;49.728;9.228;2023-12-07T11:27:30;0.70;;;0.70;;
2896;SDS011;1458;49.728;9.228;2023-12-07T11:29:59;0.80;;;0.80;;
2896;SDS011;1458;49.728;9.228;2023-12-07T11:32:27;0.70;;;0.70;;
2896;SDS011;1458;49.728;9.228;2023-12-07T11:34:59;0.70;;;0.70;;
2896;SDS011;1458;49.728;9.228;2023-12-07T11:40:31;0.70;;;0.70;;
2896;SDS011;1458;49.728;9.228;2023-12-07T11:43:01;0.83;;;0.83;;
2896;SDS011;1458;49.728;9.228;2023-12-07T11:45:40;0.80;;;0.80;;
2896;SDS011;1458;49.728;9.228;2023-12-07T11:48:09;0.70;;;0.70;;
2896;SDS011;1458;49.728;9.228;2023-12-07T11:53:37;0.70;;;0.70;;
2896;SDS011;1458;49.728;9.228;2023-12-07T11:56:06;0.80;;;0.80;;
2896;SDS011;1458;49.728;9.228;2023-12-07T11:58:35;0.77;;;0.77;;
2896;SDS011;1458;49.728;9.228;2023-12-07T12:01:04;0.70;;;0.70;;
2896;SDS011;1458;49.728;9.228;2023-12-07T12:03:32;0.70;;;0.70;;
2896;SDS011;1458;49.728;9.228;2023-12-07T12:06:02;1.10;;;1.10;;
2896;SDS011;1458;49.728;9.228;2023-12-07T12:08:36;0.90;;;0.90;;
2896;SDS011;1458;49.728;9.228;2023-12-07T12:11:06;1.30;;;1.30;;
2896;SDS011;1458;49.728;9.228;2023-12-07T12:13:34;1.00;;;1.00;;
2896;SDS011;1458;49.728;9.228;2023-12-07T12:16:02;1.03;;;1.03;;
2896;SDS011;1458;49.728;9.228;2023-12-07T12:18:31;1.00;;;1.00;;
2896;SDS011;1458;49.728;9.228;2023-12-07T12:20:59;1.10;;;1.10;;
2896;SDS011;1458;49.728;9.228;2023-12-07T12:23:27;0.97;;;0.97;;
2896;SDS011;1458;49.728;9.228;2023-12-07T12:25:56;1.20;;;1.20;;
2896;SDS011;1458;49.728;9.228;2023-12-07T12:28:24;0.90;;;0.90;;
2896;SDS011;1458;49.728;9.228;2023-12-07T12:30:52;0.93;;;0.93;;
2896;SDS011;1458;49.728;9.228;2023-12-07T12:33:21;1.00;;;1.00;;
2896;SDS011;1458;49.728;9.228;2023-12-07T12:35:59;1.10;;;1.10;;
2896;SDS011;1458;49.728;9.228;2023-12-07T12:38:29;1.10;;;1.10;;
2896;SDS011;1458;49.728;9.228;2023-12-07T12:40:58;1.10;;;1.10;;
2896;SDS011;1458;49.728;9.228;2023-12-07T12:43:25;1.00;;;1.00;;
2896;SDS011;1458;49.728;9.228;2023-12-07T12:45:53;0.90;;;0.90;;
2896;SDS011;1458;49.728;9.228;2023-12-07T12:48:20;1.00;;;1.00;;
2896;SDS011;1458;49.728;9.228;2023-12-07T12:50:48;1.10;;;1.10;;
2896;SDS011;1458;49.728;9.228;2023-12-07T12:53:15;1.00;;;1.00;;
2896;SDS011;1458;49.728;9.228;2023-12-07T12:55:43;1.20;;;1.20;;
2896;SDS011;1458;49.728;9.228;2023-12-07T12:58:13;1.00;;;1.00;;
2896;SDS011;1458;49.728;9.228;2023-12-07T13:00:42;1.00;;;1.00;;
2896;SDS011;1458;49.728;9.228;2023-12-07T13:03:09;0.90;;;0.90;;
2896;SDS011;1458;49.728;9.228;2023-12-07T13:05:38;0.90;;;0.90;;
2896;SDS011;1458;49.728;9.228;2023-12-07T13:08:06;0.80;;;0.80;;
2896;SDS011;1458;49.728;9.228;2023-12-07T13:10:34;0.93;;;0.93;;
2896;SDS011;1458;49.728;9.228;2023-12-07T13:13:02;0.80;;;0.80;;
2896;SDS011;1458;49.728;9.228;2023-12-07T13:15:33;0.80;;;0.80;;
2896;SDS011;1458;49.728;9.228;2023-12-07T13:18:01;0.90;;;0.90;;
2896;SDS011;1458;49.728;9.228;2023-12-07T13:20:30;0.73;;;0.73;;
2896;SDS011;1458;49.728;9.228;2023-12-07T13:22:58;0.80;;;0.80;;
2896;SDS011;1458;49.728;9.228;2023-12-07T13:25:25;0.80;;;0.80;;
2896;SDS011;1458;49.728;9.228;2023-12-07T13:27:52;0.80;;;0.80;;
2896;SDS011;1458;49.728;9.228;2023-12-07T13:30:20;0.90;;;0.90;;
2896;SDS011;1458;49.728;9.228;2023-12-07T13:32:49;0.83;;;0.83;;
2896;SDS011;1458;49.728;9.228;2023-12-07T13:35:16;0.80;;;0.80;;
2896;SDS011;1458;49.728;9.228;2023-12-07T13:37:44;0.70;;;0.70;;
2896;SDS011;1458;49.728;9.228;2023-12-07T13:40:13;0.80;;;0.80;;
2896;SDS011;1458;49.728;9.228;2023-12-07T13:42:40;0.90;;;0.90;;
2896;SDS011;1458;49.728;9.228;2023-12-07T13:45:08;0.70;;;0.70;;
2896;SDS011;1458;49.728;9.228;2023-12-07T13:47:36;0.90;;;0.90;;
2896;SDS011;1458;49.728;9.228;2023-12-07T13:50:06;0.80;;;0.80;;
2896;SDS011;1458;49.728;9.228;2023-12-07T13:52:34;0.80;;;0.80;;
2896;SDS011;1458;49.728;9.228;2023-12-07T13:55:02;0.70;;;0.70;;
2896;SDS011;1458;49.728;9.228;2023-12-07T13:57:30;0.70;;;0.70;;
2896;SDS011;1458;49.728;9.228;2023-12-07T13:59:57;0.83;;;0.83;;
2896;SDS011;1458;49.728;9.228;2023-12-07T14:02:25;0.90;;;0.90;;
2896;SDS011;1458;49.728;9.228;2023-12-07T14:04:54;1.00;;;1.00;;
2896;SDS011;1458;49.728;9.228;2023-12-07T14:07:22;0.70;;;0.70;;
2896;SDS011;1458;49.728;9.228;2023-12-07T14:09:51;0.70;;;0.70;;
2896;SDS011;1458;49.728;9.228;2023-12-07T14:12:19;0.90;;;0.90;;
2896;SDS011;1458;49.728;9.228;2023-12-07T14:14:47;0.90;;;0.90;;
2896;SDS011;1458;49.728;9.228;2023-12-07T14:17:15;0.80;;;0.80;;
2896;SDS011;1458;49.728;9.228;2023-12-07T14:19:43;0.87;;;0.87;;
2896;SDS011;1458;49.728;9.228;2023-12-07T14:22:12;0.80;;;0.80;;
2896;SDS011;1458;49.728;9.228;2023-12-07T14:24:41;0.80;;;0.80;;
2896;SDS011;1458;49.728;9.228;2023-12-07T14:27:09;0.70;;;0.70;;
2896;SDS011;1458;49.728;9.228;2023-12-07T14:29:37;0.93;;;0.93;;
2896;SDS011;1458;49.728;9.228;2023-12-07T14:32:04;0.90;;;0.90;;
2896;SDS011;1458;49.728;9.228;2023-12-07T14:34:34;0.90;;;0.90;;
2896;SDS011;1458;49.728;9.228;2023-12-07T14:37:02;0.80;;;0.80;;
2896;SDS011;1458;49.728;9.228;2023-12-07T14:39:31;0.80;;;0.80;;
2896;SDS011;1458;49.728;9.228;2023-12-07T14:42:00;1.00;;;1.00;;
2896;SDS011;1458;49.728;9.228;2023-12-07T14:44:29;1.20;;;1.20;;
2896;SDS011;1458;49.728;9.228;2023-12-07T14:46:57;0.90;;;0.90;;
2896;SDS011;1458;49.728;9.228;2023-12-07T14:49:24;0.83;;;0.83;;
2896;SDS011;1458;49.728;9.228;2023-12-07T14:51:53;0.90;;;0.90;;
2896;SDS011;1458;49.728;9.228;2023-12-07T14:54:24;0.90;;;0.90;;
2896;SDS011;1458;49.728;9.228;2023-12-07T14:56:52;0.87;;;0.87;;
2896;SDS011;1458;49.728;9.228;2023-12-07T14:59:21;0.80;;;0.80;;
2896;SDS011;1458;49.728;9.228;2023-12-07T15:01:48;1.00;;;1.00;;
2896;SDS011;1458;49.728;9.228;2023-12-07T15:04:16;0.80;;;0.80;;
2896;SDS011;1458;49.728;9.228;2023-12-07T15:06:44;0.93;;;0.93;;
2896;SDS011;1458;49.728;9.228;2023-12-07T15:09:11;0.80;;;0.80;;
2896;SDS011;1458;49.728;9.228;2023-12-07T15:11:39;0.80;;;0.80;;
2896;SDS011;1458;49.728;9.228;2023-12-07T15:14:07;0.80;;;0.80;;
2896;SDS011;1458;49.728;9.228;2023-12-07T15:16:37;0.80;;;0.80;;
2896;SDS011;1458;49.728;9.228;2023-12-07T15:19:05;0.80;;;0.80;;
2896;SDS011;1458;49.728;9.228;2023-12-07T15:21:32;0.90;;;0.90;;
2896;SDS011;1458;49.728;9.228;2023-12-07T15:24:00;0.70;;;0.70;;
2896;SDS011;1458;49.728;9.228;2023-12-07T15:26:28;0.70;;;0.70;;
2896;SDS011;1458;49.728;9.228;2023-12-07T15:28:55;0.70;;;0.70;;
2896;SDS011;1458;49.728;9.228;2023-12-07T15:31:23;0.90;;;0.90;;
2896;SDS011;1458;49.728;9.228;2023-12-07T15:33:52;0.80;;;0.80;;
2896;SDS011;1458;49.728;9.228;2023-12-07T15:36:19;0.87;;;0.87;;